Time;durP1;ratioP1;P1;durP2;ratioP2;P2;SDS_P1;SDS_P2;PMS_P1;PMS_P2;Temp;Humidity;BMP_temperature;BMP_pressure;BME280_temperature;BME280_humidity;BME280_pressure;Samples;Min_cycle;Max_cycle;Signal;HPM_P1;HPM_P2
2021/09/20 00:01:02;;;;;;;13.23;7.65;;;;;;;18.64;67.65;99819.41;5051032;28;20531;-21
2021/09/20 00:03:27;;;;;;;13.50;8.57;;;;;;;18.86;66.70;99814.47;5051644;28;20032;-21
2021/09/20 00:05:53;;;;;;;11.93;8.05;;;;;;;18.90;66.28;99798.50;5051491;28;20048;-21
2021/09/20 00:08:18;;;;;;;12.75;7.93;;;;;;;18.77;65.60;99797.19;5051084;28;20514;-21
2021/09/20 00:10:44;;;;;;;13.85;7.78;;;;;;;18.97;64.52;99785.47;5051319;28;20028;-21
2021/09/20 00:13:09;;;;;;;11.93;8.10;;;;;;;19.18;64.94;99799.63;5051254;28;20480;-21
2021/09/20 00:15:35;;;;;;;11.90;7.68;;;;;;;19.14;64.64;99793.16;5051424;28;20033;-21
2021/09/20 00:18:00;;;;;;;12.63;7.88;;;;;;;18.71;65.83;99784.78;5051231;28;20104;-21
2021/09/20 00:20:25;;;;;;;14.90;7.75;;;;;;;18.82;65.27;99783.69;5050877;28;20029;-21
2021/09/20 00:22:52;;;;;;;13.70;8.55;;;;;;;18.84;65.22;99781.50;5033059;28;20033;-21
2021/09/20 00:25:18;;;;;;;12.02;8.05;;;;;;;18.78;65.77;99798.81;5051139;28;20032;-21
2021/09/20 00:27:43;;;;;;;19.02;8.52;;;;;;;18.87;66.08;99802.53;5050892;28;20040;-21
2021/09/20 00:30:09;;;;;;;10.75;7.75;;;;;;;18.80;65.45;99776.94;5050476;28;20025;-21
2021/09/20 00:32:35;;;;;;;14.85;8.68;;;;;;;19.03;64.80;99778.94;5050853;28;20037;-21
2021/09/20 00:35:00;;;;;;;13.13;8.63;;;;;;;18.78;65.65;99788.00;5050827;28;20455;-21
2021/09/20 00:37:26;;;;;;;11.90;8.25;;;;;;;19.21;64.11;99785.56;5050616;28;20025;-21
2021/09/20 00:39:51;;;;;;;14.25;8.60;;;;;;;19.23;63.42;99777.97;5050871;28;20554;-21
2021/09/20 00:42:17;;;;;;;17.98;9.32;;;;;;;18.91;64.79;99785.78;5050451;28;20032;-21
2021/09/20 00:44:42;;;;;;;16.13;8.65;;;;;;;18.85;64.78;99782.31;5050543;28;20033;-21
2021/09/20 00:47:07;;;;;;;14.52;9.48;;;;;;;18.80;64.79;99779.66;5050444;28;20476;-21
2021/09/20 00:49:33;;;;;;;15.48;10.45;;;;;;;18.72;64.82;99762.09;5050530;28;20025;-21
2021/09/20 00:51:58;;;;;;;12.18;8.70;;;;;;;18.76;64.73;99778.56;5050406;28;20489;-21
2021/09/20 00:54:24;;;;;;;16.08;9.57;;;;;;;18.50;65.71;99788.72;5050246;28;20029;-22
2021/09/20 00:56:49;;;;;;;16.48;10.23;;;;;;;18.60;65.39;99792.16;5016036;28;20045;-21
2021/09/20 00:59:17;;;;;;;16.77;9.30;;;;;;;18.61;65.30;99774.03;5049989;28;20056;-21
2021/09/20 01:01:42;;;;;;;14.98;9.07;;;;;;;18.33;65.49;99762.03;5032208;28;20446;-22
2021/09/20 01:04:08;;;;;;;14.95;10.60;;;;;;;18.80;64.50;99764.25;5049850;28;20554;-21
2021/09/20 01:06:33;;;;;;;13.98;9.55;;;;;;;18.86;63.38;99762.31;5050177;28;20032;-21
2021/09/20 01:08:59;;;;;;;14.35;8.82;;;;;;;18.93;63.97;99767.41;5049722;28;20039;-22
2021/09/20 01:11:24;;;;;;;15.13;9.32;;;;;;;18.73;63.43;99746.69;5050124;28;20029;-21
2021/09/20 01:13:50;;;;;;;13.80;9.10;;;;;;;18.84;63.41;99746.38;5032296;28;20397;-21
2021/09/20 01:16:15;;;;;;;15.18;9.77;;;;;;;18.90;63.20;99765.25;5049906;28;20481;-21
2021/09/20 01:18:41;;;;;;;14.70;9.27;;;;;;;18.76;63.80;99746.94;5050640;28;20033;-21
2021/09/20 01:21:06;;;;;;;13.93;8.23;;;;;;;18.66;63.97;99760.53;5031829;28;20040;-21
2021/09/20 01:23:32;;;;;;;14.80;9.00;;;;;;;18.68;64.01;99750.25;5049985;28;20503;-21
2021/09/20 01:25:57;;;;;;;12.90;8.48;;;;;;;18.74;64.11;99759.13;5032045;28;20033;-21
2021/09/20 01:28:23;;;;;;;13.40;9.10;;;;;;;18.77;63.57;99756.66;5049673;28;20036;-21
2021/09/20 01:30:48;;;;;;;14.02;9.10;;;;;;;18.53;63.43;99761.97;5050180;28;20029;-21
2021/09/20 01:33:14;;;;;;;14.40;9.55;;;;;;;18.35;64.48;99751.78;5049730;28;20421;-21
2021/09/20 01:35:39;;;;;;;13.68;8.77;;;;;;;18.05;65.32;99743.56;5049673;28;20025;-21
2021/09/20 01:38:05;;;;;;;14.38;9.75;;;;;;;18.32;64.47;99763.94;5049648;28;20102;-21
2021/09/20 01:40:30;;;;;;;12.52;8.13;;;;;;;18.09;64.20;99759.22;5049303;28;20029;-21
2021/09/20 01:42:56;;;;;;;12.90;8.90;;;;;;;17.79;64.55;99755.47;5049478;28;20033;-22
2021/09/20 01:45:24;;;;;;;15.00;9.20;;;;;;;18.01;61.20;99742.50;5049593;28;20028;-21
2021/09/20 01:47:50;;;;;;;18.13;8.90;;;;;;;18.38;62.85;99748.53;5049296;28;20085;-21
2021/09/20 01:50:16;;;;;;;14.80;9.07;;;;;;;17.99;63.82;99733.88;5049076;28;20394;-22
2021/09/20 01:52:41;;;;;;;13.65;8.30;;;;;;;17.51;63.78;99722.66;5031745;28;20040;-21
2021/09/20 01:55:07;;;;;;;12.00;7.97;;;;;;;16.67;65.69;99740.97;5049231;28;20040;-21
2021/09/20 01:57:33;;;;;;;22.85;9.45;;;;;;;17.41;64.92;99760.44;5049251;28;20564;-21
2021/09/20 01:59:59;;;;;;;15.18;8.43;;;;;;;17.57;64.54;99759.31;5049305;28;20088;-21
2021/09/20 02:02:24;;;;;;;22.42;9.70;;;;;;;17.56;63.26;99746.91;5048946;28;20035;-21
2021/09/20 02:04:50;;;;;;;13.32;8.90;;;;;;;17.33;65.42;99769.06;5049041;28;20060;-21
2021/09/20 02:07:15;;;;;;;14.43;9.27;;;;;;;17.42;64.77;99753.94;5049192;28;20044;-21
2021/09/20 02:09:40;;;;;;;13.20;8.63;;;;;;;17.12;66.62;99774.47;5048990;28;20032;-21
2021/09/20 02:12:06;;;;;;;13.05;8.60;;;;;;;17.30;66.24;99769.59;5049075;28;20033;-21
2021/09/20 02:14:32;;;;;;;13.32;8.15;;;;;;;17.31;66.21;99755.84;5030083;28;20036;-21
2021/09/20 02:16:57;;;;;;;16.75;9.05;;;;;;;17.64;64.23;99781.41;5048976;28;20025;-21
2021/09/20 02:19:23;;;;;;;13.23;8.43;;;;;;;17.71;64.34;99781.13;5048830;28;20040;-21
2021/09/20 02:21:48;;;;;;;14.95;8.02;;;;;;;17.71;64.39;99774.94;5048702;28;20032;-21
2021/09/20 02:24:13;;;;;;;11.82;8.90;;;;;;;17.70;64.84;99778.72;5048718;28;20029;-21
2021/09/20 02:26:39;;;;;;;13.73;8.18;;;;;;;17.48;65.95;99771.72;5049101;28;20472;-21
2021/09/20 02:29:04;;;;;;;12.63;7.93;;;;;;;17.67;65.06;99756.59;5048851;28;20036;-21
2021/09/20 02:31:30;;;;;;;10.60;7.53;;;;;;;17.17;66.26;99738.63;5049134;28;20021;-21
2021/09/20 02:33:55;;;;;;;11.90;7.88;;;;;;;17.71;65.25;99754.16;5048840;28;20045;-21
2021/09/20 02:36:21;;;;;;;12.15;7.72;;;;;;;17.36;66.64;99752.34;5048626;28;20083;-21
2021/09/20 02:38:46;;;;;;;12.50;7.97;;;;;;;17.01;67.30;99751.28;5048852;28;20543;-21
2021/09/20 02:41:12;;;;;;;15.15;9.07;;;;;;;16.72;68.31;99754.44;5048559;28;20021;-21
2021/09/20 02:43:37;;;;;;;17.70;9.15;;;;;;;16.86;68.37;99755.56;5048672;28;20033;-21
2021/09/20 02:46:03;;;;;;;15.75;9.65;;;;;;;16.67;69.47;99766.03;5048648;28;20416;-21
2021/09/20 02:48:29;;;;;;;19.60;11.20;;;;;;;16.07;71.33;99748.63;5048613;28;20481;-22
2021/09/20 02:50:54;;;;;;;17.05;11.02;;;;;;;16.03;71.74;99772.53;5048757;28;20025;-22
2021/09/20 02:53:20;;;;;;;13.43;9.80;;;;;;;16.14;72.48;99776.09;5048580;28;20040;-21
2021/09/20 02:55:45;;;;;;;13.70;9.45;;;;;;;16.27;71.70;99753.28;5030543;28;20045;-22
2021/09/20 02:58:11;;;;;;;13.65;9.77;;;;;;;16.25;71.59;99777.75;5048159;28;20087;-21
2021/09/20 03:00:36;;;;;;;12.90;9.35;;;;;;;16.48;70.03;99763.00;5048304;28;20067;-21
2021/09/20 03:03:02;;;;;;;13.52;9.10;;;;;;;17.08;70.27;99751.81;5048505;28;20067;-21
2021/09/20 03:05:27;;;;;;;14.45;8.75;;;;;;;18.16;65.15;99754.31;5048372;28;20029;-22
2021/09/20 03:07:53;;;;;;;14.68;9.60;;;;;;;17.93;65.43;99755.75;5048825;28;20025;-21
2021/09/20 03:10:18;;;;;;;14.15;8.57;;;;;;;17.66;64.53;99765.75;5048235;28;20040;-21
2021/09/20 03:12:44;;;;;;;11.48;8.57;;;;;;;17.20;65.13;99746.97;5048487;28;20028;-21
2021/09/20 03:15:10;;;;;;;17.60;10.60;;;;;;;17.10;66.60;99752.38;5048487;28;20032;-21
2021/09/20 03:17:36;;;;;;;14.70;9.63;;;;;;;17.38;66.16;99750.19;5048284;28;20029;-21
2021/09/20 03:20:01;;;;;;;16.67;10.93;;;;;;;16.49;69.01;99750.38;5048408;28;20036;-21
2021/09/20 03:22:27;;;;;;;20.48;9.73;;;;;;;16.02;69.52;99752.09;5048039;28;20061;-21
2021/09/20 03:24:52;;;;;;;17.30;9.68;;;;;;;15.66;70.26;99751.06;5048270;28;20033;-21
2021/09/20 03:27:19;;;;;;;15.05;9.68;;;;;;;15.64;71.36;99762.06;5051690;28;20032;-21
2021/09/20 03:29:44;;;;;;;16.48;9.68;;;;;;;16.09;69.56;99756.44;5051985;28;20111;-21
2021/09/20 03:32:09;;;;;;;15.68;10.00;;;;;;;15.68;70.28;99787.38;5051634;28;20420;-21
2021/09/20 03:34:35;;;;;;;19.17;10.13;;;;;;;15.79;70.80;99782.09;5051555;28;20039;-22
2021/09/20 03:37:00;;;;;;;16.15;10.57;;;;;;;16.13;70.83;99787.91;5050903;28;20466;-21
2021/09/20 03:39:26;;;;;;;14.98;9.82;;;;;;;16.06;69.87;99782.78;5051513;28;20451;-21
2021/09/20 03:41:52;;;;;;;13.98;9.70;;;;;;;16.07;70.67;99786.28;5051054;28;20040;-22
2021/09/20 03:44:17;;;;;;;17.00;10.55;;;;;;;15.89;71.82;99800.97;5051820;28;20032;-21
2021/09/20 03:46:43;;;;;;;19.30;10.77;;;;;;;16.26;70.79;99800.06;5052008;28;20041;-21
2021/09/20 03:49:08;;;;;;;16.02;10.20;;;;;;;16.53;68.07;99777.56;5051594;28;20037;-21
2021/09/20 03:51:33;;;;;;;13.73;9.80;;;;;;;16.46;69.20;99789.38;5051543;28;20029;-22
2021/09/20 03:53:59;;;;;;;15.38;10.18;;;;;;;16.45;68.87;99787.78;5051617;28;20033;-21
2021/09/20 03:56:24;;;;;;;15.40;10.45;;;;;;;16.02;70.44;99788.94;5051116;28;20041;-21
2021/09/20 03:58:50;;;;;;;14.07;9.73;;;;;;;15.79;71.29;99784.78;5051150;28;20087;-21
2021/09/20 04:01:15;;;;;;;17.73;9.88;;;;;;;15.80;71.55;99767.59;5051377;28;20074;-21
2021/09/20 04:03:41;;;;;;;19.27;10.68;;;;;;;16.32;70.24;99790.13;5051288;28;20048;-21
2021/09/20 04:06:06;;;;;;;15.52;10.73;;;;;;;16.69;68.69;99789.97;5051354;28;20025;-21
2021/09/20 04:08:32;;;;;;;16.27;11.10;;;;;;;16.77;68.36;99784.06;5051100;28;20036;-21
2021/09/20 04:10:58;;;;;;;13.70;10.40;;;;;;;17.01;66.98;99757.47;5051156;28;20032;-22
2021/09/20 04:13:23;;;;;;;15.13;9.25;;;;;;;16.84;67.47;99763.13;5051265;28;20035;-21
2021/09/20 04:15:53;;;;;;;16.40;10.57;;;;;;;16.78;67.64;99785.69;5051308;28;20034;-21
2021/09/20 04:18:18;;;;;;;14.57;11.07;;;;;;;17.02;66.62;99786.03;5050805;28;20408;-21
2021/09/20 04:20:44;;;;;;;16.13;10.95;;;;;;;17.12;66.66;99801.41;5050992;28;20094;-22
2021/09/20 04:23:09;;;;;;;13.85;10.52;;;;;;;16.82;67.91;99789.50;5051177;28;20042;-21
2021/09/20 04:25:35;;;;;;;22.38;11.05;;;;;;;16.40;69.96;99801.19;5051158;28;20059;-22
2021/09/20 04:28:00;;;;;;;16.55;11.07;;;;;;;16.07;71.81;99794.34;5050917;28;20570;-21
2021/09/20 04:30:26;;;;;;;16.52;11.07;;;;;;;15.82;73.33;99803.88;5050733;28;20029;-21
2021/09/20 04:32:51;;;;;;;22.25;11.43;;;;;;;15.85;73.80;99803.38;5050769;28;20029;-21
2021/09/20 04:35:17;;;;;;;19.58;10.85;;;;;;;15.71;74.34;99786.03;5032954;28;20078;-21
2021/09/20 04:37:42;;;;;;;18.90;11.02;;;;;;;16.14;72.49;99775.25;5049878;28;20567;-21
2021/09/20 04:40:08;;;;;;;16.80;12.32;;;;;;;16.75;71.07;99802.38;5050614;28;20028;-21
2021/09/20 04:42:34;;;;;;;19.33;11.38;;;;;;;16.57;71.44;99794.78;5050342;28;20481;-21
2021/09/20 04:44:59;;;;;;;15.88;11.82;;;;;;;16.68;70.94;99805.31;5050987;28;20108;-21
2021/09/20 04:47:24;;;;;;;18.85;12.20;;;;;;;16.92;71.27;99823.72;5050539;28;20036;-22
2021/09/20 04:49:50;;;;;;;15.95;10.40;;;;;;;16.74;70.75;99795.38;5050592;28;20032;-21
2021/09/20 04:52:15;;;;;;;17.58;11.30;;;;;;;16.89;70.31;99807.28;5050301;28;20036;-21
2021/09/20 04:54:41;;;;;;;21.80;11.95;;;;;;;17.23;69.34;99823.78;5050453;28;20044;-21
2021/09/20 04:57:06;;;;;;;19.88;11.73;;;;;;;17.19;68.97;99820.00;5050883;28;20401;-21
2021/09/20 04:59:32;;;;;;;21.50;12.98;;;;;;;17.18;68.54;99821.88;5050348;28;20057;-21
2021/09/20 05:01:57;;;;;;;19.73;13.38;;;;;;;17.21;67.43;99829.41;5050189;28;20032;-21
2021/09/20 05:04:23;;;;;;;21.67;13.88;;;;;;;17.22;68.29;99800.56;5050072;28;20036;-21
2021/09/20 05:06:48;;;;;;;21.50;14.73;;;;;;;17.21;69.09;99804.38;5050533;28;20037;-21
2021/09/20 05:09:13;;;;;;;22.08;13.00;;;;;;;17.22;69.91;99790.63;5050515;28;20037;-21
2021/09/20 05:11:39;;;;;;;19.85;13.15;;;;;;;17.13;70.76;99786.84;5050560;28;20063;-22
2021/09/20 05:14:04;;;;;;;20.35;13.30;;;;;;;17.41;69.95;99792.78;5050498;28;20479;-21
2021/09/20 05:16:30;;;;;;;26.67;14.73;;;;;;;17.69;69.27;99788.66;5049771;28;20029;-21
2021/09/20 05:18:55;;;;;;;21.08;12.90;;;;;;;17.70;69.52;99789.50;5050076;28;20128;-21
2021/09/20 05:21:21;;;;;;;19.77;12.82;;;;;;;17.79;68.96;99787.84;5050256;28;20052;-21
2021/09/20 05:23:47;;;;;;;18.85;12.38;;;;;;;17.83;69.82;99805.13;5049812;28;20401;-21
2021/09/20 05:26:13;;;;;;;18.08;11.88;;;;;;;17.59;70.39;99794.09;5049594;28;20059;-22
2021/09/20 05:28:38;;;;;;;16.58;10.30;;;;;;;17.74;70.38;99801.38;5049797;28;20112;-21
2021/09/20 05:31:04;;;;;;;16.55;9.95;;;;;;;17.46;71.43;99784.66;5049906;28;20075;-22
2021/09/20 05:33:33;;;;;;;16.55;9.68;;;;;;;17.33;71.77;99785.25;5049965;28;20044;-21
2021/09/20 05:35:59;;;;;;;17.15;10.82;;;;;;;17.38;72.34;99794.09;5049670;28;20037;-21
2021/09/20 05:38:25;;;;;;;14.82;10.85;;;;;;;17.73;71.03;99810.53;5049678;28;20033;-21
2021/09/20 05:40:51;;;;;;;14.68;10.85;;;;;;;17.55;71.72;99793.00;5049737;28;20037;-22
2021/09/20 05:43:16;;;;;;;19.42;11.30;;;;;;;17.71;71.88;99804.59;5049584;28;20037;-21
2021/09/20 05:45:41;;;;;;;15.77;11.18;;;;;;;18.00;70.40;99816.44;5049464;28;20047;-21
2021/09/20 05:48:07;;;;;;;15.55;10.98;;;;;;;18.15;69.90;99806.69;5049149;28;20029;-22
2021/09/20 05:50:32;;;;;;;17.88;10.98;;;;;;;18.34;69.30;99820.38;5049108;28;20033;-21
2021/09/20 05:52:58;;;;;;;16.65;11.50;;;;;;;17.75;72.00;99825.34;5049301;28;20021;-21
2021/09/20 05:55:23;;;;;;;15.95;12.25;;;;;;;17.96;71.51;99811.84;5049408;28;20477;-21
2021/09/20 05:57:49;;;;;;;15.45;12.02;;;;;;;17.77;71.31;99798.91;5049204;28;20094;-21
2021/09/20 06:00:15;;;;;;;16.63;12.40;;;;;;;17.73;72.37;99821.31;5048792;28;20057;-21
2021/09/20 06:02:40;;;;;;;15.13;11.88;;;;;;;18.08;71.25;99820.44;5049210;28;20025;-21
2021/09/20 06:05:07;;;;;;;17.95;13.18;;;;;;;18.17;70.58;99815.31;5049225;28;20102;-23
2021/09/20 06:07:32;;;;;;;16.33;12.07;;;;;;;18.05;71.10;99829.91;5049014;28;20021;-22
2021/09/20 06:09:58;;;;;;;13.07;10.90;;;;;;;18.35;69.76;99832.75;5049226;28;20037;-21
2021/09/20 06:12:23;;;;;;;14.43;11.18;;;;;;;18.28;69.58;99827.66;5048699;28;20025;-21
2021/09/20 06:14:49;;;;;;;14.30;10.30;;;;;;;18.12;70.29;99813.41;5048990;28;20440;-22
2021/09/20 06:17:14;;;;;;;15.18;10.98;;;;;;;18.42;69.15;99809.78;5049357;28;20029;-21
2021/09/20 06:19:40;;;;;;;14.40;10.38;;;;;;;18.73;68.21;99792.63;5048984;28;20476;-22
2021/09/20 06:22:05;;;;;;;16.92;11.20;;;;;;;18.95;67.17;99806.56;5048694;28;20039;-21
2021/09/20 06:24:31;;;;;;;14.20;10.32;;;;;;;19.21;66.19;99800.97;5048747;28;20067;-21
2021/09/20 06:26:56;;;;;;;14.20;9.98;;;;;;;19.34;65.55;99802.22;5048892;28;20029;-21
2021/09/20 06:29:22;;;;;;;16.70;11.73;;;;;;;19.42;65.22;99818.63;5048828;28;20036;-22
2021/09/20 06:31:47;;;;;;;19.83;13.35;;;;;;;19.07;66.72;99817.81;5048685;28;20025;-21
2021/09/20 06:34:13;;;;;;;23.50;14.90;;;;;;;18.98;67.76;99824.91;5048548;28;20041;-21
2021/09/20 06:36:40;;;;;;;16.45;11.85;;;;;;;18.74;68.07;99843.66;5048749;28;20075;-22
2021/09/20 06:39:06;;;;;;;16.88;12.40;;;;;;;18.56;67.91;99828.09;5048769;28;20456;-21
2021/09/20 06:41:32;;;;;;;17.08;11.15;;;;;;;18.46;68.65;99818.16;5048593;28;20090;-21
2021/09/20 06:43:57;;;;;;;16.27;11.40;;;;;;;18.92;67.21;99836.03;5048460;28;20065;-22
2021/09/20 06:46:24;;;;;;;12.00;9.40;;;;;;;18.54;68.53;99835.66;5048401;28;20029;-22
2021/09/20 06:48:50;;;;;;;14.52;10.77;;;;;;;18.50;68.28;99807.59;5048570;28;20036;-22
2021/09/20 06:51:15;;;;;;;16.83;11.20;;;;;;;19.14;66.24;99812.09;5048596;28;20167;-21
2021/09/20 06:53:41;;;;;;;15.13;11.02;;;;;;;19.21;66.00;99815.28;5048499;28;20033;-22
2021/09/20 06:56:06;;;;;;;16.20;10.82;;;;;;;19.55;64.85;99811.75;5048670;28;20491;-21
2021/09/20 06:58:32;;;;;;;15.45;10.68;;;;;;;19.61;64.76;99821.41;5048298;28;20043;-22
2021/09/20 07:00:57;;;;;;;15.20;10.25;;;;;;;19.74;64.41;99808.38;5049883;28;20570;-21
2021/09/20 07:03:22;;;;;;;13.73;10.80;;;;;;;20.05;63.72;99823.19;5052583;28;20028;-21
2021/09/20 07:05:48;;;;;;;13.75;9.65;;;;;;;20.45;62.08;99818.38;5052454;28;20040;-21
2021/09/20 07:08:13;;;;;;;14.40;9.48;;;;;;;20.43;62.20;99800.78;5052119;28;20028;-21
2021/09/20 07:10:39;;;;;;;17.33;9.30;;;;;;;20.76;61.03;99798.22;5052102;28;20037;-21
2021/09/20 07:13:09;;;;;;;13.45;9.15;;;;;;;20.75;60.64;99810.97;5052358;28;20432;-22
2021/09/20 07:15:35;;;;;;;12.85;8.65;;;;;;;20.83;60.64;99813.00;5052423;28;20036;-21
2021/09/20 07:18:01;;;;;;;13.85;8.55;;;;;;;20.83;60.80;99823.84;5034697;28;20044;-22
2021/09/20 07:20:26;;;;;;;13.57;9.57;;;;;;;21.07;59.66;99839.25;5052004;28;20036;-21
2021/09/20 07:22:51;;;;;;;16.35;8.52;;;;;;;21.07;60.57;99836.53;5052211;28;20029;-21
2021/09/20 07:25:17;;;;;;;13.13;8.73;;;;;;;21.35;59.77;99833.91;5052130;28;20036;-21
2021/09/20 07:27:42;;;;;;;13.55;9.25;;;;;;;21.43;59.73;99819.69;5051986;28;20515;-21
2021/09/20 07:30:09;;;;;;;12.13;8.77;;;;;;;21.32;59.17;99801.97;5051848;28;20036;-21
2021/09/20 07:32:34;;;;;;;29.20;15.63;;;;;;;20.99;59.96;99804.66;5051821;28;20029;-22
2021/09/20 07:35:00;;;;;;;48.60;22.55;;;;;;;21.28;59.76;99823.44;5051935;28;20382;-21
2021/09/20 07:37:25;;;;;;;15.00;9.10;;;;;;;21.40;58.40;99814.84;5052264;28;20029;-21
2021/09/20 07:39:51;;;;;;;13.32;8.48;;;;;;;21.54;58.96;99815.72;5052126;28;20040;-21
2021/09/20 07:42:16;;;;;;;15.20;9.10;;;;;;;21.70;59.07;99815.44;5051462;28;20764;-21
2021/09/20 07:44:42;;;;;;;13.38;8.50;;;;;;;21.64;58.49;99804.69;5051961;28;20033;-21
2021/09/20 07:47:07;;;;;;;14.00;8.48;;;;;;;21.92;58.51;99823.72;5050708;28;20025;-21
2021/09/20 07:49:33;;;;;;;11.77;7.35;;;;;;;22.27;57.10;99826.88;5051788;28;20036;-21
2021/09/20 07:51:58;;;;;;;13.30;8.20;;;;;;;22.14;58.10;99795.06;5051494;28;20044;-21
2021/09/20 07:54:24;;;;;;;10.48;7.53;;;;;;;22.00;57.60;99795.84;5051343;28;20033;-21
2021/09/20 07:56:49;;;;;;;13.95;7.47;;;;;;;22.05;57.73;99814.78;5051490;28;20491;-21
2021/09/20 07:59:15;;;;;;;10.73;7.35;;;;;;;22.03;57.62;99817.00;5051199;28;20092;-21
2021/09/20 08:01:40;;;;;;;12.52;7.55;;;;;;;22.20;57.84;99838.09;5051437;28;20032;-21
2021/09/20 08:04:06;;;;;;;11.75;7.55;;;;;;;21.93;57.76;99833.47;5051264;28;20040;-21
2021/09/20 08:06:31;;;;;;;12.35;7.68;;;;;;;21.38;59.46;99823.28;5051123;28;20481;-21
2021/09/20 08:08:58;;;;;;;10.27;7.60;;;;;;;21.70;58.92;99802.69;5051409;28;20045;-21
2021/09/20 08:11:24;;;;;;;12.38;7.55;;;;;;;21.81;58.24;99797.88;5050709;28;20036;-21
2021/09/20 08:13:49;;;;;;;12.00;7.57;;;;;;;22.15;57.20;99811.06;5050269;28;20059;-21
2021/09/20 08:16:14;;;;;;;11.43;7.63;;;;;;;22.25;56.60;99782.91;5051271;28;20059;-21
2021/09/20 08:18:40;;;;;;;13.95;8.55;;;;;;;22.53;56.04;99807.31;5050881;28;20861;-21
2021/09/20 08:21:06;;;;;;;14.07;8.23;;;;;;;22.75;55.81;99815.53;5050876;28;20029;-21
2021/09/20 08:23:32;;;;;;;12.75;7.80;;;;;;;22.66;54.90;99812.75;5050979;28;20037;-21
2021/09/20 08:25:58;;;;;;;10.32;8.00;;;;;;;22.53;54.89;99807.31;5050803;28;20503;-21
2021/09/20 08:28:23;;;;;;;13.73;8.02;;;;;;;22.58;56.73;99804.50;5050898;28;20037;-21
2021/09/20 08:30:49;;;;;;;15.90;7.55;;;;;;;22.38;56.26;99805.75;5050937;28;20025;-21
2021/09/20 08:33:14;;;;;;;15.43;7.60;;;;;;;22.55;56.18;99794.25;5050827;28;20558;-21
2021/09/20 08:35:40;;;;;;;13.27;8.10;;;;;;;22.71;56.26;99789.28;5050995;28;20029;-21
2021/09/20 08:38:05;;;;;;;12.88;7.93;;;;;;;22.67;55.62;99810.81;5050740;28;20028;-21
2021/09/20 08:40:31;;;;;;;11.15;7.22;;;;;;;22.51;56.14;99782.38;5050438;28;20528;-21
2021/09/20 08:42:57;;;;;;;14.75;8.18;;;;;;;22.71;55.70;99803.66;5050514;28;20068;-21
2021/09/20 08:45:23;;;;;;;15.73;8.98;;;;;;;22.83;55.93;99801.19;5050706;28;20033;-21
2021/09/20 08:47:49;;;;;;;11.48;8.30;;;;;;;22.93;55.65;99796.66;5050341;28;20162;-21
2021/09/20 08:50:17;;;;;;;10.43;7.63;;;;;;;23.22;54.53;99786.16;5050165;28;20139;-21
2021/09/20 08:52:42;;;;;;;14.45;8.07;;;;;;;23.52;52.40;99783.78;5050604;28;20032;-22
2021/09/20 08:55:08;;;;;;;19.05;12.27;;;;;;;23.49;53.88;99778.97;5050356;28;20520;-21
2021/09/20 08:57:34;;;;;;;16.85;9.82;;;;;;;23.38;53.56;99764.81;5050319;28;20064;-21
2021/09/20 09:00:00;;;;;;;13.45;8.02;;;;;;;23.73;51.62;99762.25;5050582;28;20051;-21
2021/09/20 09:02:25;;;;;;;11.07;7.28;;;;;;;24.01;50.67;99771.03;5050365;28;20090;-21
2021/09/20 09:04:51;;;;;;;9.80;6.55;;;;;;;23.82;51.07;99770.50;5033256;28;20399;-21
2021/09/20 09:07:18;;;;;;;13.25;7.55;;;;;;;24.37;50.49;99764.53;5052666;28;20044;-21
2021/09/20 09:09:49;;;;;;;12.75;6.53;;;;;;;24.36;50.58;99743.88;5053474;28;20025;-21
2021/09/20 09:12:18;;;;;;;11.30;6.03;;;;;;;24.44;49.84;99745.81;5053692;28;20033;-21
2021/09/20 09:14:48;;;;;;;10.60;6.43;;;;;;;25.05;48.87;99750.47;5053381;28;20032;-21
2021/09/20 09:17:17;;;;;;;11.40;6.47;;;;;;;25.43;48.12;99750.56;5053228;28;20017;-21
2021/09/20 09:19:48;;;;;;;9.43;5.47;;;;;;;25.39;47.95;99762.47;5053110;28;20457;-21
2021/09/20 09:22:14;;;;;;;15.38;7.95;;;;;;;24.73;50.10;99747.13;5053090;28;20511;-21
2021/09/20 09:24:52;;;;;;;95.28;38.75;;;;;;;25.04;48.20;99735.22;5052828;28;20037;-21
2021/09/20 09:27:19;;;;;;;16.23;7.47;;;;;;;25.68;47.37;99745.31;5053277;28;20028;-21
2021/09/20 09:29:45;;;;;;;17.10;8.43;;;;;;;26.39;45.43;99739.16;5035891;28;20211;-21
2021/09/20 09:32:10;;;;;;;13.20;5.68;;;;;;;26.18;44.91;99702.81;5053136;28;20044;-21
2021/09/20 09:34:35;;;;;;;8.77;5.35;;;;;;;25.80;44.85;99715.38;5018768;28;20025;-21
2021/09/20 09:37:12;;;;;;;9.57;5.88;;;;;;;25.76;45.87;99719.91;5052426;28;20029;-21
2021/09/20 09:39:37;;;;;;;11.32;6.10;;;;;;;26.09;44.92;99732.13;5052821;28;20037;-21
2021/09/20 09:42:29;;;;;;;9.32;4.95;;;;;;;25.70;45.65;99734.06;5051699;28;20028;-21
2021/09/20 09:44:56;;;;;;;12.35;4.93;;;;;;;26.08;44.80;99733.28;5051893;28;20029;-21
2021/09/20 09:47:26;;;;;;;10.13;4.93;;;;;;;26.15;44.52;99741.72;5051167;28;20033;-21
2021/09/20 09:50:30;;;;;;;9.25;5.10;;;;;;;26.59;43.72;99740.31;5051378;28;20049;-21
2021/09/20 09:52:56;;;;;;;11.23;5.25;;;;;;;26.36;43.53;99719.91;5051940;28;20576;-21
2021/09/20 09:55:22;;;;;;;9.77;4.85;;;;;;;26.44;43.80;99722.56;5052599;28;20033;-21
2021/09/20 09:57:51;;;;;;;10.70;4.88;;;;;;;26.87;43.47;99717.88;5052457;28;20033;-21
2021/09/20 10:00:18;;;;;;;7.18;4.22;;;;;;;27.30;41.97;99719.38;5052525;28;20077;-21
2021/09/20 10:02:45;;;;;;;10.38;4.97;;;;;;;27.51;43.00;99716.56;5052284;28;20032;-21
2021/09/20 10:05:16;;;;;;;12.70;4.43;;;;;;;27.83;40.93;99708.59;5052659;28;20037;-21
2021/09/20 10:07:48;;;;;;;13.13;4.35;;;;;;;28.60;39.40;99724.22;5052732;28;20111;-21
2021/09/20 10:10:16;;;;;;;10.57;4.80;;;;;;;29.08;38.17;99722.41;5052386;28;20032;-21
2021/09/20 10:12:43;;;;;;;11.00;5.82;;;;;;;28.46;40.13;99716.34;5052344;28;20408;-22
2021/09/20 10:15:12;;;;;;;7.93;4.47;;;;;;;28.82;38.17;99709.94;5052359;28;20465;-21
2021/09/20 10:17:37;;;;;;;34.22;10.15;;;;;;;29.11;38.53;99699.75;5052266;28;20052;-21
2021/09/20 10:20:05;;;;;;;11.05;4.57;;;;;;;29.30;36.89;99695.50;5052308;28;20025;-21
2021/09/20 10:22:30;;;;;;;9.13;4.22;;;;;;;29.62;37.29;99683.34;5052238;28;20040;-21
2021/09/20 10:24:59;;;;;;;17.38;6.65;;;;;;;30.15;35.29;99685.75;5051997;28;20409;-21
2021/09/20 10:27:25;;;;;;;8.65;4.10;;;;;;;30.41;35.08;99671.38;5052023;28;20031;-21
2021/09/20 10:30:35;;;;;;;10.90;4.23;;;;;;;29.55;35.79;99665.94;5052244;28;20036;-21
2021/09/20 10:33:04;;;;;;;10.50;4.30;;;;;;;28.51;37.93;99666.78;5045295;28;20036;-21
2021/09/20 10:35:33;;;;;;;7.95;3.65;;;;;;;28.89;36.99;99664.63;5053146;28;20066;-22
2021/09/20 10:38:01;;;;;;;16.65;4.80;;;;;;;29.33;36.66;99657.16;5071668;28;20409;-22
2021/09/20 10:40:27;;;;;;;9.30;4.15;;;;;;;29.79;35.85;99634.69;5071599;28;20444;-21
2021/09/20 10:42:56;;;;;;;10.27;3.95;;;;;;;30.32;36.07;99640.56;5053996;28;20111;-22
2021/09/20 10:45:45;;;;;;;9.35;4.18;;;;;;;30.11;34.22;99653.84;5070101;28;20067;-23
2021/09/20 10:48:23;;;;;;;7.53;3.90;;;;;;;29.76;35.54;99647.19;5068205;28;20028;-20
2021/09/20 10:51:14;;;;;;;9.07;4.25;;;;;;;29.80;36.38;99642.59;5068293;28;20033;-23
2021/09/20 10:53:41;;;;;;;12.52;5.22;;;;;;;29.34;37.08;99635.97;5068382;28;20024;-23
2021/09/20 10:56:07;;;;;;;8.27;4.10;;;;;;;30.01;35.12;99636.75;5068158;28;20623;-23
2021/09/20 10:58:39;;;;;;;10.82;4.10;;;;;;;30.34;34.78;99626.44;5068006;28;20554;-23
2021/09/20 11:01:11;;;;;;;11.05;4.72;;;;;;;30.35;34.91;99631.56;5066555;28;20935;-22
2021/09/20 11:03:46;;;;;;;9.82;4.10;;;;;;;30.76;34.40;99620.94;5066619;28;20074;-23
2021/09/20 11:06:19;;;;;;;10.35;4.60;;;;;;;31.57;32.04;99624.66;5068103;28;20044;-23
2021/09/20 11:08:44;;;;;;;7.65;4.00;;;;;;;31.80;31.83;99608.06;5068232;28;20055;-23
2021/09/20 11:11:43;;;;;;;9.55;3.90;;;;;;;31.20;32.88;99611.47;5068263;28;20488;-23
2021/09/20 11:14:21;;;;;;;9.82;4.90;;;;;;;31.72;31.64;99603.63;5064248;28;20033;-23
2021/09/20 11:16:48;;;;;;;11.95;4.60;;;;;;;31.44;32.11;99582.75;5067179;28;20033;-22
2021/09/20 11:19:28;;;;;;;20.00;4.20;;;;;;;31.59;31.64;99600.28;5068614;28;20028;-23
2021/09/20 11:22:10;;;;;;;11.38;4.10;;;;;;;31.17;32.88;99590.97;5068214;28;20032;-23